Time;durP1;ratioP1;P1;durP2;ratioP2;P2;SDS_P1;SDS_P2;PMS_P1;PMS_P2;Temp;Humidity;BMP_temperature;BMP_pressure;BME280_temperature;BME280_humidity;BME280_pressure;Samples;Min_cycle;Max_cycle;Signal;HPM_P1;HPM_P2
2021/09/04 00:00:15;;;;;;;42.47;28.27;;;;;15.70;101246.00;;;;12870635;23;20173;-80
2021/09/04 00:05:17;;;;;;;37.13;26.60;;;;;15.60;101254.00;;;;12894503;22;20256;-80
2021/09/04 00:10:18;;;;;;;40.37;27.50;;;;;15.60;101254.00;;;;12895328;22;20170;-80
2021/09/04 00:15:20;;;;;;;39.33;28.00;;;;;15.50;101246.00;;;;12895235;22;20251;-80
2021/09/04 00:20:21;;;;;;;40.03;27.33;;;;;15.50;101249.00;;;;12868630;22;20173;-81
2021/09/04 00:25:22;;;;;;;42.83;27.87;;;;;15.40;101239.00;;;;12870194;22;20193;-81
2021/09/04 00:30:30;;;;;;;38.37;27.53;;;;;15.30;101236.00;;;;12871293;22;20201;-80
2021/09/04 00:35:31;;;;;;;42.10;27.73;;;;;15.30;101245.00;;;;12870232;22;20166;-80
2021/09/04 00:40:32;;;;;;;37.90;26.77;;;;;15.20;101249.00;;;;12894054;22;20288;-80
2021/09/04 00:45:33;;;;;;;40.43;25.80;;;;;15.20;101252.00;;;;12846778;22;20211;-80
2021/09/04 00:50:36;;;;;;;36.70;26.47;;;;;15.10;101247.00;;;;12895732;22;20173;-80
2021/09/04 00:55:38;;;;;;;38.60;26.87;;;;;15.10;101245.00;;;;12872454;22;20177;-80
2021/09/04 01:00:40;;;;;;;36.50;25.83;;;;;15.00;101244.00;;;;12895888;22;20532;-80
2021/09/04 01:05:43;;;;;;;38.67;25.77;;;;;15.00;101242.00;;;;12870819;22;20212;-80
2021/09/04 01:10:44;;;;;;;40.27;26.10;;;;;14.90;101240.00;;;;12870741;22;20256;-80
2021/09/04 01:15:47;;;;;;;42.67;27.27;;;;;14.90;101231.00;;;;12872235;22;20193;-80
2021/09/04 01:20:49;;;;;;;42.50;28.80;;;;;14.80;101242.00;;;;12870984;22;20182;-80
2021/09/04 01:25:54;;;;;;;40.60;27.20;;;;;14.80;101231.00;;;;12895274;22;20201;-79
2021/09/04 01:30:55;;;;;;;42.57;27.23;;;;;14.70;101222.00;;;;12845340;22;20217;-80
2021/09/04 01:35:57;;;;;;;46.47;29.03;;;;;14.70;101213.00;;;;12871294;22;20184;-80
2021/09/04 01:40:58;;;;;;;48.53;29.13;;;;;14.60;101214.00;;;;12845589;22;20166;-80
2021/09/04 01:45:59;;;;;;;41.57;27.60;;;;;14.50;101213.00;;;;12870094;22;20177;-80
2021/09/04 01:51:03;;;;;;;46.53;28.50;;;;;14.50;101215.00;;;;12894275;22;20174;-80
2021/09/04 01:56:05;;;;;;;44.53;29.40;;;;;14.40;101210.00;;;;12868691;22;20169;-79
2021/09/04 02:01:07;;;;;;;47.70;29.07;;;;;14.30;101207.00;;;;12868927;22;20169;-79
2021/09/04 02:06:09;;;;;;;42.30;27.30;;;;;14.30;101206.00;;;;12844323;22;20257;-79
2021/09/04 02:11:10;;;;;;;47.27;29.00;;;;;14.30;101211.00;;;;12893525;22;20177;-79
2021/09/04 02:16:11;;;;;;;43.97;27.90;;;;;14.20;101211.00;;;;12891672;22;20189;-79
2021/09/04 02:21:13;;;;;;;44.70;26.20;;;;;14.10;101223.00;;;;12867825;22;20181;-78
2021/09/04 02:26:15;;;;;;;46.73;27.20;;;;;14.10;101222.00;;;;12866575;22;20797;-80
2021/09/04 02:31:19;;;;;;;44.03;27.53;;;;;14.00;101226.00;;;;12867725;22;20185;-80
2021/09/04 02:36:22;;;;;;;49.73;29.03;;;;;14.00;101228.00;;;;12843316;22;20580;-80
2021/09/04 02:41:24;;;;;;;47.40;26.90;;;;;13.90;101216.00;;;;12867127;22;20676;-80
2021/09/04 02:46:26;;;;;;;44.80;27.37;;;;;13.90;101226.00;;;;12868630;22;20174;-80
2021/09/04 02:51:28;;;;;;;46.90;28.80;;;;;13.90;101231.00;;;;12866410;22;20256;-80
2021/09/04 02:56:29;;;;;;;47.43;27.17;;;;;13.90;101238.00;;;;12866767;22;20169;-80
2021/09/04 03:01:33;;;;;;;45.83;27.60;;;;;13.80;101229.00;;;;12868056;22;20514;-80
2021/09/04 03:06:35;;;;;;;44.67;27.87;;;;;13.80;101229.00;;;;12843625;22;20196;-80
2021/09/04 03:11:37;;;;;;;50.63;28.97;;;;;13.80;101219.00;;;;12867512;22;20246;-79
2021/09/04 03:16:39;;;;;;;50.13;29.30;;;;;13.70;101219.00;;;;12842113;22;20208;-80
2021/09/04 03:21:42;;;;;;;51.47;28.53;;;;;13.70;101220.00;;;;12842069;22;20289;-80
2021/09/04 03:26:44;;;;;;;52.80;28.70;;;;;13.70;101226.00;;;;12867798;22;20173;-79
2021/09/04 03:31:47;;;;;;;49.00;27.07;;;;;13.70;101229.00;;;;12843356;22;20208;-80
2021/09/04 03:36:48;;;;;;;51.53;28.77;;;;;13.60;101235.00;;;;12866772;22;20268;-80
2021/09/04 03:41:50;;;;;;;50.13;28.83;;;;;13.60;101230.00;;;;12866641;22;20197;-79
2021/09/04 03:46:54;;;;;;;50.97;29.30;;;;;13.50;101220.00;;;;12842606;22;20173;-80
2021/09/04 03:51:56;;;;;;;52.70;28.50;;;;;13.50;101222.00;;;;12841681;22;20180;-79
2021/09/04 03:56:58;;;;;;;50.83;27.63;;;;;13.50;101227.00;;;;12842790;22;20181;-80
2021/09/04 04:01:59;;;;;;;54.90;29.00;;;;;13.40;101226.00;;;;12865917;22;20197;-79
2021/09/04 04:07:02;;;;;;;49.57;27.30;;;;;13.40;101223.00;;;;12867533;22;20239;-79
2021/09/04 04:12:04;;;;;;;44.57;27.60;;;;;13.40;101219.00;;;;12866694;22;20173;-80
2021/09/04 04:17:05;;;;;;;58.00;31.07;;;;;13.30;101227.00;;;;12865512;22;20211;-80
2021/09/04 04:22:06;;;;;;;53.57;28.37;;;;;13.30;101219.00;;;;12890064;22;20190;-79
2021/09/04 04:27:09;;;;;;;64.13;29.87;;;;;13.30;101213.00;;;;12866437;22;20193;-79
2021/09/04 04:32:10;;;;;;;53.43;29.17;;;;;13.20;101228.00;;;;12841799;22;20217;-80
2021/09/04 04:37:11;;;;;;;55.67;29.43;;;;;13.20;101234.00;;;;12889729;22;20178;-80
2021/09/04 04:42:12;;;;;;;65.33;30.50;;;;;13.20;101236.00;;;;12840952;22;20216;-79
2021/09/04 04:47:14;;;;;;;62.73;29.70;;;;;13.20;101235.00;;;;12865437;22;20815;-79
2021/09/04 04:52:16;;;;;;;57.27;30.40;;;;;13.10;101234.00;;;;12865086;22;20174;-80
2021/09/04 04:57:18;;;;;;;57.93;31.37;;;;;13.10;101235.00;;;;12866709;22;20261;-80
2021/09/04 05:02:19;;;;;;;61.60;31.87;;;;;13.20;101237.00;;;;12890224;22;20190;-80
2021/09/04 05:07:21;;;;;;;64.83;32.13;;;;;13.20;101237.00;;;;12865132;22;20590;-80
2021/09/04 05:12:22;;;;;;;59.43;31.57;;;;;13.20;101237.00;;;;12865745;22;20177;-80
2021/09/04 05:17:24;;;;;;;65.50;33.27;;;;;13.30;101235.00;;;;12864446;22;20193;-80
2021/09/04 05:22:25;;;;;;;61.67;31.77;;;;;13.40;101244.00;;;;12864999;22;20221;-79
2021/09/04 05:27:27;;;;;;;64.57;33.17;;;;;13.60;101251.00;;;;12866128;22;20173;-80
2021/09/04 05:32:28;;;;;;;64.93;31.80;;;;;13.70;101254.00;;;;12868414;22;20668;-80
2021/09/04 05:37:29;;;;;;;72.50;35.20;;;;;13.90;101264.00;;;;12869191;22;20235;-80
2021/09/04 05:42:30;;;;;;;74.00;34.03;;;;;14.10;101267.00;;;;12845578;22;20229;-80
2021/09/04 05:47:32;;;;;;;83.40;37.03;;;;;14.10;101260.00;;;;12868915;22;20170;-80
2021/09/04 05:52:33;;;;;;;87.73;39.40;;;;;14.20;101261.00;;;;12871106;22;20232;-80
2021/09/04 05:57:34;;;;;;;85.97;38.80;;;;;14.30;101259.00;;;;12871012;22;20166;-80
2021/09/04 06:02:35;;;;;;;94.73;41.77;;;;;14.50;101251.00;;;;12846189;22;20193;-81
2021/09/04 06:07:37;;;;;;;99.30;43.10;;;;;14.50;101258.00;;;;12872361;22;20204;-81
2021/09/04 06:12:38;;;;;;;108.30;44.93;;;;;14.50;101259.00;;;;12847143;22;20545;-81
2021/09/04 06:17:39;;;;;;;108.13;44.43;;;;;14.50;101264.00;;;;12868357;22;20256;-80
2021/09/04 06:22:40;;;;;;;119.90;47.17;;;;;14.70;101260.00;;;;12846250;22;20350;-80
2021/09/04 06:27:41;;;;;;;116.33;46.83;;;;;14.80;101267.00;;;;12870491;22;20177;-81
2021/09/04 06:32:43;;;;;;;113.57;46.77;;;;;14.90;101275.00;;;;12845482;22;20181;-81
2021/09/04 06:37:44;;;;;;;109.73;47.93;;;;;15.10;101275.00;;;;12895035;22;20173;-80
2021/09/04 06:42:45;;;;;;;118.33;48.23;;;;;15.20;101264.00;;;;12894602;22;20865;-79
2021/09/04 06:47:47;;;;;;;116.80;49.63;;;;;15.10;101272.00;;;;12867320;22;20169;-79
2021/09/04 06:52:48;;;;;;;131.23;52.27;;;;;15.10;101272.00;;;;12844661;22;20165;-80
2021/09/04 06:57:50;;;;;;;130.50;51.03;;;;;15.30;101283.00;;;;12869877;22;20181;-81
2021/09/04 07:02:51;;;;;;;127.87;51.70;;;;;15.50;101293.00;;;;12867942;22;20193;-80
2021/09/04 07:07:56;;;;;;;125.27;52.83;;;;;15.60;101295.00;;;;12868243;22;20272;-80
2021/09/04 07:12:58;;;;;;;127.33;54.63;;;;;15.70;101295.00;;;;12896555;22;20173;-80
2021/09/04 07:18:00;;;;;;;125.67;53.90;;;;;15.70;101296.00;;;;12870165;22;20280;-80
2021/09/04 07:23:10;;;;;;;124.60;50.73;;;;;15.80;101296.00;;;;12849750;22;20232;-80
2021/09/04 07:28:12;;;;;;;117.33;51.53;;;;;15.90;101299.00;;;;12869804;22;20169;-81
2021/09/04 07:33:13;;;;;;;119.13;53.30;;;;;15.90;101312.00;;;;12869931;22;20174;-80
2021/09/04 07:38:14;;;;;;;125.83;55.97;;;;;15.90;101302.00;;;;12915819;22;20219;-81
2021/09/04 07:43:16;;;;;;;123.27;54.03;;;;;16.00;101307.00;;;;12868530;22;20194;-80
2021/09/04 07:48:17;;;;;;;118.03;54.67;;;;;16.00;101308.00;;;;12870811;22;20169;-80
2021/09/04 07:53:18;;;;;;;107.00;50.37;;;;;16.00;101316.00;;;;12872523;22;20177;-81
2021/09/04 07:58:19;;;;;;;106.60;50.30;;;;;16.20;101321.00;;;;12896303;22;20169;-81
2021/09/04 08:03:20;;;;;;;96.63;47.87;;;;;16.30;101318.00;;;;12873030;22;20204;-81
2021/09/04 08:08:22;;;;;;;103.47;49.07;;;;;16.30;101317.00;;;;12872852;22;20173;-81
2021/09/04 08:13:24;;;;;;;107.40;50.87;;;;;16.40;101324.00;;;;12897477;22;20169;-81
2021/09/04 08:18:25;;;;;;;103.10;47.67;;;;;16.60;101325.00;;;;12896397;22;20198;-80
2021/09/04 08:23:26;;;;;;;91.73;46.07;;;;;16.70;101328.00;;;;12871256;22;20198;-81
2021/09/04 08:28:28;;;;;;;83.33;42.67;;;;;16.80;101338.00;;;;12847885;22;20177;-81
2021/09/04 08:33:29;;;;;;;93.53;45.77;;;;;16.90;101358.00;;;;12849324;22;20676;-81
2021/09/04 08:38:30;;;;;;;95.70;47.53;;;;;17.00;101361.00;;;;12872797;22;20176;-80
2021/09/04 08:43:33;;;;;;;87.13;44.77;;;;;17.10;101362.00;;;;12849504;22;20528;-81
2021/09/04 08:48:36;;;;;;;90.07;43.80;;;;;17.30;101369.00;;;;12873433;22;20173;-80
2021/09/04 08:53:39;;;;;;;89.27;43.50;;;;;17.40;101373.00;;;;12872651;22;20174;-81
2021/09/04 08:58:40;;;;;;;83.22;42.70;;;;;17.60;101370.00;;;;12872950;22;20178;-81
2021/09/04 09:03:43;;;;;;;82.88;44.17;;;;;17.70;101376.00;;;;12894645;22;20243;-81
2021/09/04 09:09:18;;;;;;;89.32;45.53;;;;;17.70;101370.00;;;;12899973;22;20553;-81
2021/09/04 09:14:21;;;;;;;87.50;44.38;;;;;17.70;101380.00;;;;12874652;22;20195;-81
2021/09/04 09:19:26;;;;;;;87.78;42.85;;;;;17.80;101382.00;;;;12849976;22;20625;-81
2021/09/04 09:24:27;;;;;;;85.53;45.17;;;;;18.10;101390.00;;;;12874345;22;20194;-80
2021/09/04 09:29:34;;;;;;;81.32;43.60;;;;;18.10;101374.00;;;;12873253;22;20177;-80
2021/09/04 09:34:46;;;;;;;80.43;43.35;;;;;18.30;101379.00;;;;12898710;22;20173;-81
2021/09/04 09:39:48;;;;;;;79.22;44.20;;;;;18.50;101387.00;;;;12899309;22;20494;-82
2021/09/04 09:44:49;;;;;;;79.50;43.00;;;;;18.60;101398.00;;;;12872650;23;20228;-81
2021/09/04 09:49:50;;;;;;;84.45;42.25;;;;;18.70;101404.00;;;;12873614;22;20173;-81
2021/09/04 09:54:51;;;;;;;80.35;41.80;;;;;18.80;101400.00;;;;12849789;22;20169;-81
2021/09/04 09:59:53;;;;;;;74.32;40.72;;;;;18.90;101394.00;;;;12898531;23;20169;-80
2021/09/04 10:04:55;;;;;;;80.68;44.08;;;;;19.10;101387.00;;;;12848977;22;20201;-80
2021/09/04 10:09:56;;;;;;;79.05;42.63;;;;;19.10;101392.00;;;;12874325;22;20192;-81
2021/09/04 10:14:58;;;;;;;97.68;46.03;;;;;19.20;101401.00;;;;12851280;22;20175;-80
2021/09/04 10:19:59;;;;;;;80.32;42.05;;;;;19.20;101401.00;;;;12899540;22;20243;-81
2021/09/04 10:25:13;;;;;;;86.25;45.08;;;;;19.30;101395.00;;;;12899444;22;20217;-81
2021/09/04 10:30:29;;;;;;;81.38;43.78;;;;;19.70;101376.00;;;;12875846;22;20237;-81
2021/09/04 10:35:43;;;;;;;86.25;46.78;;;;;20.20;101389.00;;;;12848375;22;20227;-82
2021/09/04 10:40:52;;;;;;;84.50;44.95;;;;;20.70;101383.00;;;;12874352;23;20193;-82
2021/09/04 10:45:53;;;;;;;77.88;45.17;;;;;20.70;101390.00;;;;12897816;22;20200;-82
2021/09/04 10:51:09;;;;;;;79.05;45.90;;;;;20.70;101387.00;;;;12896218;22;20185;-81
2021/09/04 10:56:21;;;;;;;73.50;42.20;;;;;20.90;101392.00;;;;12896148;22;20182;-81
2021/09/04 11:01:26;;;;;;;73.30;43.30;;;;;21.20;101387.00;;;;12845190;22;20189;-81
2021/09/04 11:06:28;;;;;;;72.55;43.75;;;;;21.60;101377.00;;;;12870730;22;20204;-80
2021/09/04 11:11:39;;;;;;;70.93;41.40;;;;;21.90;101370.00;;;;12896459;22;20173;-80
2021/09/04 11:16:45;;;;;;;69.00;40.75;;;;;22.10;101382.00;;;;12894510;22;20201;-81
2021/09/04 11:21:50;;;;;;;67.13;42.33;;;;;22.30;101385.00;;;;12845749;22;20201;-80
2021/09/04 11:27:10;;;;;;;68.75;43.78;;;;;22.50;101385.00;;;;12871003;22;20224;-81
2021/09/04 11:32:12;;;;;;;66.35;42.55;;;;;22.90;101370.00;;;;12894473;22;20181;-80
2021/09/04 11:37:13;;;;;;;67.55;43.38;;;;;23.40;101370.00;;;;12894086;22;20169;-82
2021/09/04 11:42:21;;;;;;;66.43;43.67;;;;;23.40;101365.00;;;;12896012;22;20196;-81
2021/09/04 11:47:24;;;;;;;64.45;43.83;;;;;23.40;101360.00;;;;12844979;22;20173;-81
2021/09/04 11:52:32;;;;;;;62.55;42.53;;;;;23.30;101356.00;;;;12940693;22;20170;-81
2021/09/04 11:57:35;;;;;;;60.20;41.58;;;;;22.60;101347.00;;;;12869210;22;20179;-80
2021/09/04 12:02:42;;;;;;;62.03;41.92;;;;;23.30;101348.00;;;;12868512;22;20760;-80
2021/09/04 12:07:44;;;;;;;58.47;40.83;;;;;24.00;101345.00;;;;12868801;22;20649;-79
2021/09/04 12:12:45;;;;;;;69.80;45.78;;;;;23.70;101341.00;;;;12893082;22;20184;-80
2021/09/04 12:17:55;;;;;;;61.85;42.85;;;;;24.10;101332.00;;;;12913794;22;20177;-80
2021/09/04 12:23:00;;;;;;;59.38;41.95;;;;;24.40;101324.00;;;;12843193;22;20198;-80
2021/09/04 12:28:09;;;;;;;62.88;43.42;;;;;23.80;101322.00;;;;12912510;22;20236;-80
2021/09/04 12:33:10;;;;;;;65.25;43.25;;;;;23.50;101320.00;;;;12868805;22;20235;-79
2021/09/04 12:38:18;;;;;;;55.83;40.10;;;;;23.60;101317.00;;;;12895792;22;20173;-79
2021/09/04 12:43:20;;;;;;;59.40;42.78;;;;;24.00;101318.00;;;;12874002;22;20193;-80
2021/09/04 12:48:31;;;;;;;60.67;44.38;;;;;24.20;101305.00;;;;12874026;22;20177;-80
2021/09/04 12:53:33;;;;;;;51.13;39.35;;;;;24.20;101307.00;;;;12898142;22;20308;-80
2021/09/04 12:58:34;;;;;;;53.42;38.53;;;;;24.60;101307.00;;;;12898559;22;20549;-80
2021/09/04 13:03:36;;;;;;;57.03;40.00;;;;;24.70;101308.00;;;;12849813;22;20200;-80
2021/09/04 13:08:38;;;;;;;53.65;39.22;;;;;24.80;101306.00;;;;12896774;22;20174;-79
2021/09/04 13:13:39;;;;;;;54.17;39.28;;;;;24.60;101303.00;;;;12872239;22;20201;-79
2021/09/04 13:18:42;;;;;;;50.50;38.65;;;;;24.60;101293.00;;;;12895542;22;20196;-80
2021/09/04 13:23:43;;;;;;;50.70;38.25;;;;;24.80;101286.00;;;;12917974;22;20248;-79
2021/09/04 13:28:44;;;;;;;50.58;36.83;;;;;24.60;101297.00;;;;12895900;22;20497;-79
2021/09/04 13:33:45;;;;;;;53.42;36.88;;;;;24.40;101289.00;;;;12871720;22;20173;-79
2021/09/04 13:38:46;;;;;;;51.33;36.72;;;;;24.30;101283.00;;;;12847182;22;20205;-79
2021/09/04 13:43:48;;;;;;;48.25;35.47;;;;;24.30;101277.00;;;;12920443;22;20764;-79
2021/09/04 13:48:49;;;;;;;47.83;34.55;;;;;24.30;101275.00;;;;12941326;22;20166;-80
2021/09/04 13:53:50;;;;;;;45.88;33.80;;;;;23.80;101273.00;;;;12892994;22;20166;-79
2021/09/04 13:58:52;;;;;;;50.45;34.35;;;;;23.50;101273.00;;;;12895121;22;20180;-80
2021/09/04 14:03:53;;;;;;;49.38;36.80;;;;;23.10;101264.00;;;;12892810;22;20193;-80
2021/09/04 14:08:55;;;;;;;45.95;34.35;;;;;23.40;101243.00;;;;12866397;22;20509;-79
2021/09/04 14:13:56;;;;;;;47.67;35.28;;;;;24.30;101248.00;;;;12842803;22;20565;-80
2021/09/04 14:18:57;;;;;;;45.50;34.40;;;;;25.50;101246.00;;;;12893719;22;20189;-80
2021/09/04 14:23:58;;;;;;;47.83;35.10;;;;;27.20;101246.00;;;;12895622;22;20568;-80
2021/09/04 14:28:59;;;;;;;51.60;35.83;;;;;27.10;101227.00;;;;12871345;22;20177;-79
2021/09/04 14:34:01;;;;;;;46.03;35.97;;;;;26.00;101228.00;;;;12897056;22;20220;-80
2021/09/04 14:39:03;;;;;;;43.67;33.45;;;;;26.90;101225.00;;;;12916528;22;20231;-80
2021/09/04 14:44:04;;;;;;;43.72;31.77;;;;;26.50;101229.00;;;;12869838;22;20220;-80
2021/09/04 14:49:05;;;;;;;41.40;32.78;;;;;27.20;101200.00;;;;12894649;22;20247;-80
2021/09/04 14:54:06;;;;;;;40.78;30.73;;;;;26.40;101220.00;;;;12896167;22;20598;-81
2021/09/04 14:59:07;;;;;;;35.65;28.85;;;;;24.20;101216.00;;;;12871904;22;20215;-79
2021/09/04 15:04:08;;;;;;;38.10;28.20;;;;;25.30;101200.00;;;;12846497;22;20197;-80
2021/09/04 15:09:10;;;;;;;34.83;27.85;;;;;24.90;101201.00;;;;12941595;22;20169;-79
2021/09/04 15:14:11;;;;;;;34.40;28.08;;;;;24.80;101197.00;;;;12844444;22;20185;-79
2021/09/04 15:19:12;;;;;;;35.33;27.80;;;;;24.30;101188.00;;;;12894628;22;20193;-80
2021/09/04 15:24:13;;;;;;;33.80;27.23;;;;;24.00;101185.00;;;;12893974;22;20233;-79
2021/09/04 15:29:14;;;;;;;34.80;27.70;;;;;23.40;101184.00;;;;12869889;22;20613;-79
2021/09/04 15:34:16;;;;;;;34.05;27.73;;;;;23.20;101191.00;;;;12893416;22;20657;-80
2021/09/04 15:39:17;;;;;;;38.55;30.00;;;;;22.90;101195.00;;;;12870313;22;20236;-79
2021/09/04 15:44:18;;;;;;;40.90;29.83;;;;;22.70;101192.00;;;;12845158;22;20197;-79
2021/09/04 15:49:19;;;;;;;35.47;28.35;;;;;22.50;101184.00;;;;12844784;22;20176;-79
2021/09/04 15:54:21;;;;;;;34.17;26.02;;;;;22.40;101182.00;;;;12869550;22;20181;-79
2021/09/04 15:59:22;;;;;;;36.83;26.25;;;;;22.20;101189.00;;;;12868317;22;20178;-79
2021/09/04 16:04:23;;;;;;;33.00;24.52;;;;;22.10;101181.00;;;;12867089;22;20202;-80
2021/09/04 16:09:24;;;;;;;33.08;25.20;;;;;22.00;101179.00;;;;12868172;22;20173;-79
2021/09/04 16:14:25;;;;;;;32.70;26.65;;;;;22.00;101183.00;;;;12893342;22;20173;-79
2021/09/04 16:19:26;;;;;;;34.58;27.90;;;;;21.90;101174.00;;;;12869048;22;20196;-79
2021/09/04 16:24:32;;;;;;;43.08;29.48;;;;;21.90;101178.00;;;;12869601;22;20197;-79
2021/09/04 16:29:34;;;;;;;42.63;28.90;;;;;21.90;101174.00;;;;12915722;22;20208;-79
2021/09/04 16:34:36;;;;;;;35.33;28.08;;;;;21.80;101182.00;;;;12893331;22;20169;-79
2021/09/04 16:39:37;;;;;;;41.22;27.30;;;;;21.70;101197.00;;;;12939542;22;20249;-79
2021/09/04 16:44:38;;;;;;;35.35;24.73;;;;;21.60;101188.00;;;;12868637;22;20192;-79
2021/09/04 16:49:40;;;;;;;30.08;24.02;;;;;21.40;101195.00;;;;12893495;22;20200;-79
2021/09/04 16:54:41;;;;;;;33.47;25.58;;;;;21.30;101203.00;;;;12892953;22;20170;-79
2021/09/04 16:59:42;;;;;;;34.55;25.92;;;;;21.20;101208.00;;;;12914022;22;20161;-80
2021/09/04 17:04:43;;;;;;;34.80;24.83;;;;;21.00;101214.00;;;;12938855;22;20633;-79
2021/09/04 17:09:44;;;;;;;37.05;25.65;;;;;20.80;101207.00;;;;12869082;22;20249;-79
2021/09/04 17:14:45;;;;;;;32.47;25.08;;;;;20.60;101214.00;;;;12892693;22;20610;-79
2021/09/04 17:19:47;;;;;;;39.50;24.58;;;;;20.40;101212.00;;;;12868602;23;20185;-79
2021/09/04 17:24:48;;;;;;;42.60;27.05;;;;;20.20;101215.00;;;;12893895;22;20197;-79
2021/09/04 17:29:49;;;;;;;34.05;25.85;;;;;20.00;101209.00;;;;12917295;22;20165;-79
2021/09/04 17:34:50;;;;;;;37.88;25.55;;;;;19.80;101209.00;;;;12870721;22;20600;-78
2021/09/04 17:39:53;;;;;;;37.65;26.70;;;;;19.70;101200.00;;;;12917682;22;20169;-79
2021/09/04 17:44:54;;;;;;;42.05;25.88;;;;;19.60;101199.00;;;;12871198;22;20189;-79
2021/09/04 17:49:55;;;;;;;36.28;25.35;;;;;19.40;101201.00;;;;12844944;22;20178;-79
2021/09/04 17:54:57;;;;;;;36.38;26.10;;;;;19.30;101202.00;;;;12869779;22;20170;-79
2021/09/04 17:59:59;;;;;;;41.95;26.98;;;;;19.20;101194.00;;;;12917061;22;20162;-79
2021/09/04 18:05:13;;;;;;;39.92;26.92;;;;;19.10;101196.00;;;;12897109;22;20193;-78
2021/09/04 18:10:15;;;;;;;37.28;26.10;;;;;19.00;101205.00;;;;12845595;22;20174;-79
2021/09/04 18:15:16;;;;;;;36.15;26.08;;;;;18.90;101207.00;;;;12870310;22;20760;-78
2021/09/04 18:20:21;;;;;;;36.33;27.48;;;;;18.70;101211.00;;;;12846364;22;20526;-79
2021/09/04 18:25:22;;;;;;;41.05;27.95;;;;;18.60;101205.00;;;;12870882;22;20260;-79
2021/09/04 18:30:24;;;;;;;44.80;27.52;;;;;18.50;101207.00;;;;12894417;22;20173;-79
2021/09/04 18:35:25;;;;;;;36.88;27.02;;;;;18.40;101204.00;;;;12845609;22;20626;-79
2021/09/04 18:40:26;;;;;;;39.55;26.75;;;;;18.30;101216.00;;;;12921430;22;20174;-79
2021/09/04 18:45:27;;;;;;;38.25;28.48;;;;;18.20;101216.00;;;;12869697;22;20197;-79
2021/09/04 18:50:28;;;;;;;40.28;27.27;;;;;18.10;101231.00;;;;12870862;22;20169;-78
2021/09/04 18:55:29;;;;;;;39.45;28.45;;;;;18.00;101234.00;;;;12895269;22;20169;-79
2021/09/04 19:00:31;;;;;;;45.50;30.58;;;;;18.00;101240.00;;;;12895654;22;20216;-79
2021/09/04 19:05:32;;;;;;;43.28;29.08;;;;;17.90;101244.00;;;;12893956;22;20194;-78
2021/09/04 19:10:35;;;;;;;47.50;30.45;;;;;17.90;101254.00;;;;12868244;22;20174;-79
2021/09/04 19:15:36;;;;;;;39.97;29.15;;;;;17.80;101261.00;;;;12894147;22;20220;-79
2021/09/04 19:20:39;;;;;;;40.65;28.83;;;;;17.80;101262.00;;;;12916629;22;20166;-79
2021/09/04 19:25:40;;;;;;;46.75;30.20;;;;;17.80;101263.00;;;;12894181;22;20196;-79
2021/09/04 19:30:41;;;;;;;43.85;29.75;;;;;17.70;101261.00;;;;12893833;22;20240;-79
2021/09/04 19:35:42;;;;;;;41.85;31.55;;;;;17.70;101258.00;;;;12844841;22;20215;-79
2021/09/04 19:40:44;;;;;;;40.97;30.02;;;;;17.70;101260.00;;;;12845402;22;20174;-79
2021/09/04 19:45:49;;;;;;;42.38;29.60;;;;;17.70;101270.00;;;;12893866;22;20586;-79
2021/09/04 19:50:50;;;;;;;43.83;29.70;;;;;17.70;101269.00;;;;12870716;22;20170;-79
2021/09/04 19:55:53;;;;;;;45.75;30.55;;;;;17.70;101280.00;;;;12894025;22;20165;-79
2021/09/04 20:00:54;;;;;;;49.35;31.80;;;;;17.70;101286.00;;;;12894779;22;20174;-79
2021/09/04 20:05:56;;;;;;;45.13;30.13;;;;;17.70;101290.00;;;;12894255;22;20196;-78
2021/09/04 20:10:57;;;;;;;44.95;30.13;;;;;17.60;101296.00;;;;12895031;22;20675;-79
2021/09/04 20:15:59;;;;;;;43.85;30.60;;;;;17.60;101290.00;;;;12844362;22;20189;-79
2021/09/04 20:21:01;;;;;;;46.45;32.75;;;;;17.60;101293.00;;;;12893859;22;20177;-79
2021/09/04 20:26:03;;;;;;;47.92;30.55;;;;;17.60;101296.00;;;;12913855;22;20185;-79
2021/09/04 20:31:04;;;;;;;47.97;30.90;;;;;17.50;101296.00;;;;12939590;22;20165;-79
2021/09/04 20:36:17;;;;;;;51.55;32.20;;;;;17.50;101293.00;;;;12892840;22;20169;-79
2021/09/04 20:41:19;;;;;;;46.92;31.88;;;;;17.50;101303.00;;;;12941138;22;20771;-79
2021/09/04 20:46:20;;;;;;;45.95;29.83;;;;;17.50;101300.00;;;;12867325;22;20573;-78
2021/09/04 20:51:22;;;;;;;53.50;32.33;;;;;17.40;101302.00;;;;12891707;22;20181;-79
2021/09/04 20:56:23;;;;;;;44.72;30.80;;;;;17.40;101305.00;;;;12866999;22;20481;-78
2021/09/04 21:01:24;;;;;;;44.28;31.88;;;;;17.30;101301.00;;;;12894451;22;20173;-79
2021/09/04 21:06:26;;;;;;;50.33;32.80;;;;;17.20;101298.00;;;;12871067;22;20327;-79
2021/09/04 21:11:27;;;;;;;50.05;33.42;;;;;17.10;101301.00;;;;12890766;22;20212;-80
2021/09/04 21:16:29;;;;;;;54.50;32.67;;;;;17.10;101301.00;;;;12844041;22;20193;-80
2021/09/04 21:21:30;;;;;;;49.70;32.42;;;;;17.00;101301.00;;;;12869346;22;20819;-81
2021/09/04 21:26:32;;;;;;;49.83;32.78;;;;;16.90;101310.00;;;;12858971;22;20209;-80
2021/09/04 21:31:33;;;;;;;54.95;35.30;;;;;16.80;101308.00;;;;12885130;22;20181;-80
2021/09/04 21:36:38;;;;;;;50.92;31.63;;;;;16.80;101331.00;;;;12894555;22;20201;-80
2021/09/04 21:41:39;;;;;;;49.97;31.33;;;;;16.70;101332.00;;;;12867764;22;20178;-80
2021/09/04 21:46:40;;;;;;;54.05;33.75;;;;;16.60;101332.00;;;;12841736;22;20198;-81
2021/09/04 21:51:41;;;;;;;54.08;33.67;;;;;16.50;101328.00;;;;12891717;22;20260;-80
2021/09/04 21:56:43;;;;;;;52.27;33.13;;;;;16.50;101334.00;;;;12864602;22;20181;-80
2021/09/04 22:01:44;;;;;;;50.85;33.80;;;;;16.40;101328.00;;;;12892302;22;20180;-80
2021/09/04 22:06:46;;;;;;;49.43;33.40;;;;;16.40;101331.00;;;;12844662;22;20201;-80
2021/09/04 22:11:47;;;;;;;55.03;35.27;;;;;16.30;101329.00;;;;12843391;22;20835;-80
2021/09/04 22:16:49;;;;;;;53.73;34.63;;;;;16.20;101329.00;;;;12894132;22;20198;-81
2021/09/04 22:21:50;;;;;;;55.53;35.23;;;;;16.10;101327.00;;;;12892491;22;20173;-80
2021/09/04 22:26:51;;;;;;;59.77;36.40;;;;;16.10;101331.00;;;;12893016;22;20178;-81
2021/09/04 22:31:53;;;;;;;55.13;34.60;;;;;16.00;101327.00;;;;12871686;22;20193;-80
2021/09/04 22:42:13;;;;;;;60.93;36.70;;;;;15.90;101351.00;;;;12870444;22;20200;-80
2021/09/04 22:47:15;;;;;;;70.57;40.77;;;;;15.90;101355.00;;;;12870837;22;20173;-80
2021/09/04 22:52:17;;;;;;;62.17;37.63;;;;;15.80;101350.00;;;;12870972;22;20186;-80
2021/09/04 22:57:18;;;;;;;63.60;38.53;;;;;15.80;101352.00;;;;12872019;22;20181;-80
2021/09/04 23:02:19;;;;;;;67.87;36.43;;;;;15.80;101359.00;;;;12872014;22;20198;-80
2021/09/04 23:07:21;;;;;;;64.23;37.00;;;;;15.80;101358.00;;;;12871601;22;20637;-80
2021/09/04 23:12:23;;;;;;;59.83;37.17;;;;;15.70;101365.00;;;;12873043;22;20617;-80
2021/09/04 23:17:26;;;;;;;62.07;36.53;;;;;15.70;101370.00;;;;12895821;22;20821;-80
2021/09/04 23:22:27;;;;;;;62.67;37.03;;;;;15.70;101365.00;;;;12870464;22;20204;-80
2021/09/04 23:27:28;;;;;;;59.23;36.67;;;;;15.60;101366.00;;;;12869903;22;20180;-80
2021/09/04 23:32:29;;;;;;;56.93;34.83;;;;;15.60;101377.00;;;;12916847;22;20174;-80
2021/09/04 23:37:30;;;;;;;63.90;37.13;;;;;15.50;101367.00;;;;12894077;22;20170;-80
2021/09/04 23:42:31;;;;;;;63.90;36.57;;;;;15.50;101372.00;;;;12871180;22;20197;-80
2021/09/04 23:47:33;;;;;;;59.00;35.67;;;;;15.50;101374.00;;;;12870703;22;20236;-80
2021/09/04 23:52:35;;;;;;;67.17;36.17;;;;;15.40;101371.00;;;;12870943;22;20177;-80
2021/09/04 23:57:36;;;;;;;62.40;36.27;;;;;15.30;101374.00;;;;12871029;22;20173;-81
